Entriken, Pennsylvania
Current Conditions -  °F | °C
As of 1:53 AM on Thursday 27 Nov 2014 (Local Time) from KAOO Reporting Station
Overcast Overcast  
Wind Chill: 23°   Ceiling: 1200
Heat Index: 31°   Visibility: 9mi
Dew Point: 29°   Wind: 8mph
Humidity: 92%   Direction: 260°W
Pressure: 29.97"   Gusts: NA
Location:  40.33°N, 78.2°W
Report Text: KAOO 270653Z AUTO 26007KT 9SM BKN012 OVC050 M01/M02 A2997 RMK AO2 SLP164 T10061017
Loading
Personal Weather Stations






























Interactive Weather Map New forecast layout! Learn more

10-Day Weather Forecast

Advertisements
Track Severe Weather on mobile